sensor_id;sensor_type;location;lat;lon;timestamp;P1;durP1;ratioP1;P2;durP2;ratioP2
64487;SDS011;50864;45.050;39.014;2022-11-20T00:01:18;24.73;;;13.85;;
64487;SDS011;50864;45.050;39.014;2022-11-20T00:03:46;28.20;;;17.30;;
64487;SDS011;50864;45.050;39.014;2022-11-20T00:06:14;31.85;;;18.90;;
64487;SDS011;50864;45.050;39.014;2022-11-20T00:08:41;23.98;;;15.70;;
64487;SDS011;50864;45.050;39.014;2022-11-20T00:11:11;22.25;;;13.77;;
64487;SDS011;50864;45.050;39.014;2022-11-20T00:13:42;24.70;;;16.85;;
64487;SDS011;50864;45.050;39.014;2022-11-20T00:16:10;23.30;;;14.02;;
64487;SDS011;50864;45.050;39.014;2022-11-20T00:18:38;29.12;;;19.40;;
64487;SDS011;50864;45.050;39.014;2022-11-20T00:21:05;32.70;;;19.00;;
64487;SDS011;50864;45.050;39.014;2022-11-20T00:23:33;26.25;;;14.50;;
64487;SDS011;50864;45.050;39.014;2022-11-20T00:26:06;24.63;;;16.33;;
64487;SDS011;50864;45.050;39.014;2022-11-20T00:28:34;24.23;;;14.68;;
64487;SDS011;50864;45.050;39.014;2022-11-20T00:33:28;26.05;;;13.55;;
64487;SDS011;50864;45.050;39.014;2022-11-20T00:35:58;20.70;;;14.02;;
64487;SDS011;50864;45.050;39.014;2022-11-20T00:38:31;19.35;;;12.02;;
64487;SDS011;50864;45.050;39.014;2022-11-20T00:40:59;27.90;;;17.10;;
64487;SDS011;50864;45.050;39.014;2022-11-20T00:43:27;22.58;;;13.25;;
64487;SDS011;50864;45.050;39.014;2022-11-20T00:46:12;27.35;;;17.65;;
64487;SDS011;50864;45.050;39.014;2022-11-20T00:48:40;29.33;;;18.15;;
64487;SDS011;50864;45.050;39.014;2022-11-20T00:51:07;22.58;;;14.15;;
64487;SDS011;50864;45.050;39.014;2022-11-20T00:53:33;23.55;;;14.32;;
64487;SDS011;50864;45.050;39.014;2022-11-20T00:56:00;23.17;;;16.00;;
64487;SDS011;50864;45.050;39.014;2022-11-20T00:58:31;20.73;;;13.43;;
64487;SDS011;50864;45.050;39.014;2022-11-20T01:01:03;24.00;;;15.77;;
64487;SDS011;50864;45.050;39.014;2022-11-20T01:03:32;21.67;;;14.52;;
64487;SDS011;50864;45.050;39.014;2022-11-20T01:06:00;25.85;;;17.80;;
64487;SDS011;50864;45.050;39.014;2022-11-20T01:08:31;23.60;;;16.58;;
64487;SDS011;50864;45.050;39.014;2022-11-20T01:10:59;21.05;;;15.15;;
64487;SDS011;50864;45.050;39.014;2022-11-20T01:13:30;24.45;;;16.60;;
64487;SDS011;50864;45.050;39.014;2022-11-20T01:16:07;27.13;;;18.83;;
64487;SDS011;50864;45.050;39.014;2022-11-20T01:18:35;22.42;;;15.43;;
64487;SDS011;50864;45.050;39.014;2022-11-20T01:21:07;24.85;;;17.37;;
64487;SDS011;50864;45.050;39.014;2022-11-20T01:23:36;19.58;;;11.48;;
64487;SDS011;50864;45.050;39.014;2022-11-20T01:26:05;23.65;;;14.10;;
64487;SDS011;50864;45.050;39.014;2022-11-20T01:28:33;29.30;;;18.00;;
64487;SDS011;50864;45.050;39.014;2022-11-20T01:31:00;24.83;;;17.02;;
64487;SDS011;50864;45.050;39.014;2022-11-20T01:33:27;21.62;;;13.00;;
64487;SDS011;50864;45.050;39.014;2022-11-20T01:35:53;18.90;;;13.40;;
64487;SDS011;50864;45.050;39.014;2022-11-20T01:38:28;21.20;;;13.43;;
64487;SDS011;50864;45.050;39.014;2022-11-20T01:40:54;28.62;;;17.62;;
64487;SDS011;50864;45.050;39.014;2022-11-20T01:43:21;19.65;;;12.80;;
64487;SDS011;50864;45.050;39.014;2022-11-20T01:54:45;22.65;;;16.58;;
64487;SDS011;50864;45.050;39.014;2022-11-20T01:57:14;28.45;;;20.05;;
64487;SDS011;50864;45.050;39.014;2022-11-20T01:59:44;21.58;;;14.13;;
64487;SDS011;50864;45.050;39.014;2022-11-20T02:02:19;29.87;;;19.17;;
64487;SDS011;50864;45.050;39.014;2022-11-20T02:04:46;28.02;;;18.30;;
64487;SDS011;50864;45.050;39.014;2022-11-20T02:07:14;25.27;;;17.42;;
64487;SDS011;50864;45.050;39.014;2022-11-20T02:09:41;23.90;;;17.42;;
64487;SDS011;50864;45.050;39.014;2022-11-20T02:12:07;22.70;;;14.60;;
64487;SDS011;50864;45.050;39.014;2022-11-20T02:14:53;25.40;;;17.73;;
64487;SDS011;50864;45.050;39.014;2022-11-20T02:17:19;23.92;;;17.62;;
64487;SDS011;50864;45.050;39.014;2022-11-20T02:19:46;25.40;;;16.23;;
64487;SDS011;50864;45.050;39.014;2022-11-20T02:22:31;21.40;;;15.18;;
64487;SDS011;50864;45.050;39.014;2022-11-20T02:25:04;20.17;;;14.57;;
64487;SDS011;50864;45.050;39.014;2022-11-20T02:27:32;23.87;;;15.32;;
64487;SDS011;50864;45.050;39.014;2022-11-20T02:30:02;25.80;;;17.73;;
64487;SDS011;50864;45.050;39.014;2022-11-20T02:32:34;29.05;;;19.12;;
64487;SDS011;50864;45.050;39.014;2022-11-20T02:35:38;20.48;;;13.90;;
64487;SDS011;50864;45.050;39.014;2022-11-20T02:37:58;24.95;;;18.85;;
64487;SDS011;50864;45.050;39.014;2022-11-20T02:40:26;19.10;;;13.43;;
64487;SDS011;50864;45.050;39.014;2022-11-20T02:42:55;20.12;;;14.38;;
64487;SDS011;50864;45.050;39.014;2022-11-20T02:45:23;39.13;;;25.37;;
64487;SDS011;50864;45.050;39.014;2022-11-20T02:47:50;37.15;;;25.15;;
64487;SDS011;50864;45.050;39.014;2022-11-20T02:50:16;30.50;;;19.42;;
64487;SDS011;50864;45.050;39.014;2022-11-20T02:52:43;22.77;;;16.27;;
64487;SDS011;50864;45.050;39.014;2022-11-20T02:55:09;34.78;;;24.65;;
64487;SDS011;50864;45.050;39.014;2022-11-20T02:57:35;31.65;;;19.12;;
64487;SDS011;50864;45.050;39.014;2022-11-20T03:00:02;28.48;;;19.37;;
64487;SDS011;50864;45.050;39.014;2022-11-20T03:02:30;36.65;;;24.87;;
64487;SDS011;50864;45.050;39.014;2022-11-20T03:04:56;29.80;;;22.02;;
64487;SDS011;50864;45.050;39.014;2022-11-20T03:07:22;35.45;;;22.48;;
64487;SDS011;50864;45.050;39.014;2022-11-20T03:09:48;21.37;;;15.13;;
64487;SDS011;50864;45.050;39.014;2022-11-20T03:12:14;26.58;;;16.40;;
64487;SDS011;50864;45.050;39.014;2022-11-20T03:14:40;24.55;;;18.33;;
64487;SDS011;50864;45.050;39.014;2022-11-20T03:17:06;22.45;;;15.05;;
64487;SDS011;50864;45.050;39.014;2022-11-20T03:19:32;39.80;;;19.62;;
64487;SDS011;50864;45.050;39.014;2022-11-20T03:21:59;30.67;;;18.37;;
64487;SDS011;50864;45.050;39.014;2022-11-20T03:24:26;31.58;;;17.92;;
64487;SDS011;50864;45.050;39.014;2022-11-20T03:26:52;21.83;;;15.32;;
64487;SDS011;50864;45.050;39.014;2022-11-20T03:29:18;19.65;;;14.32;;
64487;SDS011;50864;45.050;39.014;2022-11-20T03:31:44;27.48;;;14.40;;
64487;SDS011;50864;45.050;39.014;2022-11-20T03:34:10;25.12;;;17.50;;
64487;SDS011;50864;45.050;39.014;2022-11-20T03:36:37;21.33;;;13.80;;
64487;SDS011;50864;45.050;39.014;2022-11-20T03:39:04;35.90;;;20.08;;
64487;SDS011;50864;45.050;39.014;2022-11-20T03:41:30;24.65;;;14.65;;
64487;SDS011;50864;45.050;39.014;2022-11-20T03:44:02;36.47;;;22.27;;
64487;SDS011;50864;45.050;39.014;2022-11-20T03:46:30;23.98;;;14.43;;
64487;SDS011;50864;45.050;39.014;2022-11-20T03:48:56;24.05;;;16.90;;
64487;SDS011;50864;45.050;39.014;2022-11-20T03:51:23;22.45;;;16.30;;
64487;SDS011;50864;45.050;39.014;2022-11-20T03:53:52;31.58;;;21.37;;
64487;SDS011;50864;45.050;39.014;2022-11-20T03:56:20;27.65;;;17.08;;
64487;SDS011;50864;45.050;39.014;2022-11-20T03:58:49;28.10;;;17.27;;
64487;SDS011;50864;45.050;39.014;2022-11-20T04:01:20;25.65;;;17.40;;
64487;SDS011;50864;45.050;39.014;2022-11-20T04:03:47;24.08;;;15.00;;
64487;SDS011;50864;45.050;39.014;2022-11-20T04:06:15;30.30;;;19.58;;
64487;SDS011;50864;45.050;39.014;2022-11-20T04:08:44;26.02;;;16.75;;
64487;SDS011;50864;45.050;39.014;2022-11-20T04:11:15;25.10;;;17.23;;
64487;SDS011;50864;45.050;39.014;2022-11-20T04:13:42;29.02;;;17.40;;
64487;SDS011;50864;45.050;39.014;2022-11-20T04:16:11;33.90;;;21.98;;
64487;SDS011;50864;45.050;39.014;2022-11-20T04:18:37;32.25;;;21.10;;
64487;SDS011;50864;45.050;39.014;2022-11-20T04:21:04;28.20;;;18.70;;
64487;SDS011;50864;45.050;39.014;2022-11-20T04:23:31;32.28;;;20.33;;
64487;SDS011;50864;45.050;39.014;2022-11-20T04:26:07;32.25;;;16.87;;
64487;SDS011;50864;45.050;39.014;2022-11-20T04:28:35;31.62;;;19.08;;
64487;SDS011;50864;45.050;39.014;2022-11-20T04:31:05;32.28;;;19.05;;
64487;SDS011;50864;45.050;39.014;2022-11-20T04:33:39;26.60;;;18.08;;
64487;SDS011;50864;45.050;39.014;2022-11-20T04:36:06;33.42;;;21.45;;
64487;SDS011;50864;45.050;39.014;2022-11-20T04:38:37;23.15;;;16.75;;
64487;SDS011;50864;45.050;39.014;2022-11-20T04:41:04;37.58;;;25.48;;
64487;SDS011;50864;45.050;39.014;2022-11-20T04:43:32;31.35;;;19.80;;
64487;SDS011;50864;45.050;39.014;2022-11-20T04:45:59;25.58;;;19.08;;
64487;SDS011;50864;45.050;39.014;2022-11-20T04:48:27;33.75;;;20.77;;
64487;SDS011;50864;45.050;39.014;2022-11-20T04:50:54;39.28;;;22.90;;
64487;SDS011;50864;45.050;39.014;2022-11-20T04:53:20;30.45;;;18.25;;
64487;SDS011;50864;45.050;39.014;2022-11-20T04:55:47;36.75;;;22.35;;
64487;SDS011;50864;45.050;39.014;2022-11-20T04:58:14;34.67;;;21.62;;
64487;SDS011;50864;45.050;39.014;2022-11-20T05:00:40;30.52;;;18.98;;
64487;SDS011;50864;45.050;39.014;2022-11-20T05:03:06;35.13;;;22.20;;
64487;SDS011;50864;45.050;39.014;2022-11-20T05:05:35;39.17;;;23.55;;
64487;SDS011;50864;45.050;39.014;2022-11-20T05:08:01;31.12;;;20.15;;
64487;SDS011;50864;45.050;39.014;2022-11-20T05:10:28;32.70;;;20.62;;
64487;SDS011;50864;45.050;39.014;2022-11-20T05:12:54;43.58;;;24.77;;
64487;SDS011;50864;45.050;39.014;2022-11-20T05:15:20;25.95;;;18.02;;
64487;SDS011;50864;45.050;39.014;2022-11-20T05:17:47;29.23;;;19.90;;
64487;SDS011;50864;45.050;39.014;2022-11-20T05:20:14;35.90;;;23.15;;
64487;SDS011;50864;45.050;39.014;2022-11-20T05:22:40;26.65;;;18.33;;
64487;SDS011;50864;45.050;39.014;2022-11-20T05:25:06;31.85;;;19.52;;
64487;SDS011;50864;45.050;39.014;2022-11-20T05:27:32;38.30;;;24.08;;
64487;SDS011;50864;45.050;39.014;2022-11-20T05:29:58;30.20;;;20.00;;
64487;SDS011;50864;45.050;39.014;2022-11-20T05:32:24;31.00;;;19.15;;
64487;SDS011;50864;45.050;39.014;2022-11-20T05:34:53;35.97;;;23.20;;
64487;SDS011;50864;45.050;39.014;2022-11-20T05:37:39;35.03;;;21.02;;
64487;SDS011;50864;45.050;39.014;2022-11-20T05:40:05;26.25;;;16.80;;
64487;SDS011;50864;45.050;39.014;2022-11-20T05:42:32;28.58;;;19.98;;
64487;SDS011;50864;45.050;39.014;2022-11-20T05:44:59;26.20;;;18.23;;
64487;SDS011;50864;45.050;39.014;2022-11-20T05:47:26;27.50;;;18.40;;
64487;SDS011;50864;45.050;39.014;2022-11-20T05:49:53;26.95;;;17.98;;
64487;SDS011;50864;45.050;39.014;2022-11-20T05:52:19;21.95;;;15.02;;
64487;SDS011;50864;45.050;39.014;2022-11-20T05:54:46;22.85;;;15.07;;
64487;SDS011;50864;45.050;39.014;2022-11-20T05:57:12;27.85;;;18.70;;
64487;SDS011;50864;45.050;39.014;2022-11-20T05:59:38;23.42;;;13.27;;
64487;SDS011;50864;45.050;39.014;2022-11-20T06:02:04;20.17;;;13.18;;
64487;SDS011;50864;45.050;39.014;2022-11-20T06:04:30;24.37;;;13.38;;
64487;SDS011;50864;45.050;39.014;2022-11-20T06:06:56;17.20;;;8.98;;
64487;SDS011;50864;45.050;39.014;2022-11-20T06:09:22;21.25;;;12.48;;
64487;SDS011;50864;45.050;39.014;2022-11-20T06:11:48;24.63;;;16.35;;
64487;SDS011;50864;45.050;39.014;2022-11-20T06:14:14;29.45;;;13.52;;
64487;SDS011;50864;45.050;39.014;2022-11-20T06:16:40;22.02;;;13.30;;
64487;SDS011;50864;45.050;39.014;2022-11-20T06:19:06;22.62;;;12.98;;
64487;SDS011;50864;45.050;39.014;2022-11-20T06:21:32;23.87;;;15.35;;
64487;SDS011;50864;45.050;39.014;2022-11-20T06:23:58;22.05;;;14.10;;
64487;SDS011;50864;45.050;39.014;2022-11-20T06:26:25;24.15;;;15.35;;
64487;SDS011;50864;45.050;39.014;2022-11-20T06:28:52;20.77;;;14.27;;
64487;SDS011;50864;45.050;39.014;2022-11-20T06:31:22;19.25;;;11.82;;
64487;SDS011;50864;45.050;39.014;2022-11-20T06:33:50;20.30;;;12.43;;
64487;SDS011;50864;45.050;39.014;2022-11-20T06:36:18;19.05;;;12.32;;
64487;SDS011;50864;45.050;39.014;2022-11-20T06:38:45;18.90;;;12.88;;
64487;SDS011;50864;45.050;39.014;2022-11-20T06:41:12;21.25;;;12.93;;
64487;SDS011;50864;45.050;39.014;2022-11-20T06:43:40;16.52;;;10.18;;
64487;SDS011;50864;45.050;39.014;2022-11-20T06:46:08;18.80;;;13.32;;
64487;SDS011;50864;45.050;39.014;2022-11-20T06:48:36;17.58;;;9.82;;
64487;SDS011;50864;45.050;39.014;2022-11-20T06:51:06;20.73;;;12.70;;
64487;SDS011;50864;45.050;39.014;2022-11-20T06:53:33;17.45;;;11.23;;
64487;SDS011;50864;45.050;39.014;2022-11-20T06:56:00;21.17;;;12.57;;
64487;SDS011;50864;45.050;39.014;2022-11-20T06:58:27;20.75;;;11.73;;
64487;SDS011;50864;45.050;39.014;2022-11-20T07:00:58;19.45;;;12.55;;
64487;SDS011;50864;45.050;39.014;2022-11-20T07:03:25;14.00;;;9.43;;
64487;SDS011;50864;45.050;39.014;2022-11-20T07:05:51;21.87;;;14.48;;
64487;SDS011;50864;45.050;39.014;2022-11-20T07:08:17;21.02;;;11.57;;
64487;SDS011;50864;45.050;39.014;2022-11-20T07:10:43;20.25;;;13.48;;
64487;SDS011;50864;45.050;39.014;2022-11-20T07:13:09;21.00;;;12.20;;
64487;SDS011;50864;45.050;39.014;2022-11-20T07:15:35;17.37;;;9.15;;
64487;SDS011;50864;45.050;39.014;2022-11-20T07:18:01;24.08;;;15.27;;
64487;SDS011;50864;45.050;39.014;2022-11-20T07:20:27;17.25;;;10.63;;
64487;SDS011;50864;45.050;39.014;2022-11-20T07:22:56;21.90;;;12.80;;
64487;SDS011;50864;45.050;39.014;2022-11-20T07:25:24;16.60;;;10.85;;
64487;SDS011;50864;45.050;39.014;2022-11-20T07:27:51;20.48;;;10.02;;
64487;SDS011;50864;45.050;39.014;2022-11-20T07:30:18;23.52;;;14.45;;
64487;SDS011;50864;45.050;39.014;2022-11-20T07:32:50;17.65;;;11.07;;
64487;SDS011;50864;45.050;39.014;2022-11-20T07:35:17;23.38;;;12.85;;
64487;SDS011;50864;45.050;39.014;2022-11-20T07:37:44;20.60;;;12.07;;
64487;SDS011;50864;45.050;39.014;2022-11-20T07:40:17;21.55;;;10.68;;
64487;SDS011;50864;45.050;39.014;2022-11-20T07:42:50;22.00;;;10.60;;
64487;SDS011;50864;45.050;39.014;2022-11-20T07:45:17;19.17;;;12.20;;
64487;SDS011;50864;45.050;39.014;2022-11-20T07:47:44;17.12;;;10.65;;
64487;SDS011;50864;45.050;39.014;2022-11-20T07:50:10;18.67;;;10.18;;
64487;SDS011;50864;45.050;39.014;2022-11-20T07:52:37;21.12;;;11.18;;
64487;SDS011;50864;45.050;39.014;2022-11-20T07:55:03;18.52;;;12.13;;
64487;SDS011;50864;45.050;39.014;2022-11-20T07:57:30;19.62;;;10.43;;
64487;SDS011;50864;45.050;39.014;2022-11-20T07:59:56;21.48;;;12.57;;
64487;SDS011;50864;45.050;39.014;2022-11-20T08:02:22;15.13;;;10.48;;
64487;SDS011;50864;45.050;39.014;2022-11-20T08:04:48;23.33;;;15.02;;
64487;SDS011;50864;45.050;39.014;2022-11-20T08:07:14;20.62;;;11.02;;
64487;SDS011;50864;45.050;39.014;2022-11-20T08:09:40;17.52;;;12.07;;
64487;SDS011;50864;45.050;39.014;2022-11-20T08:12:07;19.33;;;11.35;;
64487;SDS011;50864;45.050;39.014;2022-11-20T08:14:51;21.73;;;11.77;;
64487;SDS011;50864;45.050;39.014;2022-11-20T08:17:17;27.62;;;13.85;;
64487;SDS011;50864;45.050;39.014;2022-11-20T08:19:43;19.25;;;13.23;;
64487;SDS011;50864;45.050;39.014;2022-11-20T08:22:09;17.33;;;10.05;;
64487;SDS011;50864;45.050;39.014;2022-11-20T08:24:35;16.83;;;10.63;;
64487;SDS011;50864;45.050;39.014;2022-11-20T08:27:01;21.80;;;10.55;;
64487;SDS011;50864;45.050;39.014;2022-11-20T08:29:27;17.05;;;10.63;;
64487;SDS011;50864;45.050;39.014;2022-11-20T08:31:54;20.80;;;11.45;;
64487;SDS011;50864;45.050;39.014;2022-11-20T08:34:19;18.67;;;12.48;;
64487;SDS011;50864;45.050;39.014;2022-11-20T08:36:45;19.80;;;10.75;;
64487;SDS011;50864;45.050;39.014;2022-11-20T08:39:12;16.55;;;9.70;;
64487;SDS011;50864;45.050;39.014;2022-11-20T08:41:38;18.87;;;9.52;;
64487;SDS011;50864;45.050;39.014;2022-11-20T08:44:05;19.75;;;10.90;;
64487;SDS011;50864;45.050;39.014;2022-11-20T08:46:37;21.40;;;11.45;;
64487;SDS011;50864;45.050;39.014;2022-11-20T08:49:05;21.58;;;12.25;;
64487;SDS011;50864;45.050;39.014;2022-11-20T08:51:32;18.17;;;10.20;;
64487;SDS011;50864;45.050;39.014;2022-11-20T08:53:58;20.45;;;10.32;;
64487;SDS011;50864;45.050;39.014;2022-11-20T08:56:24;20.83;;;10.60;;
64487;SDS011;50864;45.050;39.014;2022-11-20T08:58:50;17.95;;;10.98;;
64487;SDS011;50864;45.050;39.014;2022-11-20T09:01:18;24.63;;;12.35;;
64487;SDS011;50864;45.050;39.014;2022-11-20T09:03:45;22.37;;;10.27;;
64487;SDS011;50864;45.050;39.014;2022-11-20T09:06:12;20.65;;;11.40;;
64487;SDS011;50864;45.050;39.014;2022-11-20T09:08:39;23.55;;;13.23;;
64487;SDS011;50864;45.050;39.014;2022-11-20T09:11:05;29.42;;;11.60;;
64487;SDS011;50864;45.050;39.014;2022-11-20T09:13:32;20.70;;;11.20;;
64487;SDS011;50864;45.050;39.014;2022-11-20T09:16:01;19.55;;;11.12;;
64487;SDS011;50864;45.050;39.014;2022-11-20T09:18:31;21.25;;;13.30;;
64487;SDS011;50864;45.050;39.014;2022-11-20T09:20:58;19.48;;;10.77;;
64487;SDS011;50864;45.050;39.014;2022-11-20T09:23:25;24.23;;;13.55;;
64487;SDS011;50864;45.050;39.014;2022-11-20T09:25:52;20.10;;;12.23;;
64487;SDS011;50864;45.050;39.014;2022-11-20T09:28:20;17.80;;;10.50;;
64487;SDS011;50864;45.050;39.014;2022-11-20T09:30:47;25.33;;;14.23;;
64487;SDS011;50864;45.050;39.014;2022-11-20T09:33:33;22.02;;;13.48;;
64487;SDS011;50864;45.050;39.014;2022-11-20T09:36:00;24.55;;;15.02;;
64487;SDS011;50864;45.050;39.014;2022-11-20T09:38:26;21.60;;;10.75;;
64487;SDS011;50864;45.050;39.014;2022-11-20T09:40:57;19.70;;;9.57;;
64487;SDS011;50864;45.050;39.014;2022-11-20T09:46:35;133.98;;;50.17;;
64487;SDS011;50864;45.050;39.014;2022-11-20T09:52:51;22.13;;;12.23;;
64487;SDS011;50864;45.050;39.014;2022-11-20T09:55:13;22.17;;;12.32;;
64487;SDS011;50864;45.050;39.014;2022-11-20T09:57:42;21.25;;;12.50;;
64487;SDS011;50864;45.050;39.014;2022-11-20T10:00:11;20.80;;;11.57;;
64487;SDS011;50864;45.050;39.014;2022-11-20T10:02:42;23.12;;;12.52;;
64487;SDS011;50864;45.050;39.014;2022-11-20T10:05:15;16.12;;;8.85;;
64487;SDS011;50864;45.050;39.014;2022-11-20T10:07:50;21.33;;;11.95;;
64487;SDS011;50864;45.050;39.014;2022-11-20T10:21:28;18.40;;;9.60;;
64487;SDS011;50864;45.050;39.014;2022-11-20T10:24:31;17.62;;;11.30;;
64487;SDS011;50864;45.050;39.014;2022-11-20T10:29:59;31.00;;;19.95;;
64487;SDS011;50864;45.050;39.014;2022-11-20T10:32:45;20.83;;;11.07;;
64487;SDS011;50864;45.050;39.014;2022-11-20T10:37:56;41.22;;;22.85;;
64487;SDS011;50864;45.050;39.014;2022-11-20T10:43:13;45.85;;;23.20;;
64487;SDS011;50864;45.050;39.014;2022-11-20T10:45:47;77.95;;;38.15;;
64487;SDS011;50864;45.050;39.014;2022-11-20T10:48:32;50.80;;;25.83;;
64487;SDS011;50864;45.050;39.014;2022-11-20T10:56:22;85.95;;;41.80;;
64487;SDS011;50864;45.050;39.014;2022-11-20T10:59:10;15.98;;;8.38;;
64487;SDS011;50864;45.050;39.014;2022-11-20T11:01:52;28.62;;;14.93;;
64487;SDS011;50864;45.050;39.014;2022-11-20T11:04:37;17.30;;;8.65;;
64487;SDS011;50864;45.050;39.014;2022-11-20T11:07:16;14.45;;;8.60;;
64487;SDS011;50864;45.050;39.014;2022-11-20T11:09:44;11.98;;;7.32;;
64487;SDS011;50864;45.050;39.014;2022-11-20T11:12:14;14.35;;;7.97;;
64487;SDS011;50864;45.050;39.014;2022-11-20T11:14:47;10.50;;;6.30;;
64487;SDS011;50864;45.050;39.014;2022-11-20T11:17:27;14.80;;;8.02;;
64487;SDS011;50864;45.050;39.014;2022-11-20T11:20:03;19.15;;;8.82;;
64487;SDS011;50864;45.050;39.014;2022-11-20T11:22:31;12.93;;;8.15;;
64487;SDS011;50864;45.050;39.014;2022-11-20T11:24:59;13.68;;;7.62;;
64487;SDS011;50864;45.050;39.014;2022-11-20T11:27:26;14.55;;;8.43;;
64487;SDS011;50864;45.050;39.014;2022-11-20T15:42:29;12.98;;;5.80;;
64487;SDS011;50864;45.050;39.014;2022-11-20T15:44:55;11.75;;;5.37;;
64487;SDS011;50864;45.050;39.014;2022-11-20T15:47:24;11.15;;;6.03;;
64487;SDS011;50864;45.050;39.014;2022-11-20T15:49:53;10.73;;;6.00;;
64487;SDS011;50864;45.050;39.014;2022-11-20T15:52:19;10.70;;;5.68;;
64487;SDS011;50864;45.050;39.014;2022-11-20T15:54:45;12.90;;;6.85;;
64487;SDS011;50864;45.050;39.014;2022-11-20T15:57:11;12.63;;;6.62;;
64487;SDS011;50864;45.050;39.014;2022-11-20T15:59:38;13.30;;;6.22;;
64487;SDS011;50864;45.050;39.014;2022-11-20T16:02:13;11.23;;;4.47;;
64487;SDS011;50864;45.050;39.014;2022-11-20T16:04:40;7.37;;;4.05;;
64487;SDS011;50864;45.050;39.014;2022-11-20T16:07:07;7.22;;;4.62;;
64487;SDS011;50864;45.050;39.014;2022-11-20T16:09:33;10.88;;;4.80;;
64487;SDS011;50864;45.050;39.014;2022-11-20T16:11:59;9.20;;;4.90;;
64487;SDS011;50864;45.050;39.014;2022-11-20T16:14:26;10.18;;;4.50;;
64487;SDS011;50864;45.050;39.014;2022-11-20T16:17:11;10.63;;;5.87;;
64487;SDS011;50864;45.050;39.014;2022-11-20T16:19:37;12.35;;;5.78;;
64487;SDS011;50864;45.050;39.014;2022-11-20T16:22:03;14.30;;;6.90;;
64487;SDS011;50864;45.050;39.014;2022-11-20T16:24:30;14.05;;;6.45;;
64487;SDS011;50864;45.050;39.014;2022-11-20T16:26:56;16.40;;;10.00;;
64487;SDS011;50864;45.050;39.014;2022-11-20T16:29:22;10.65;;;5.47;;
64487;SDS011;50864;45.050;39.014;2022-11-20T16:31:48;12.85;;;5.03;;
64487;SDS011;50864;45.050;39.014;2022-11-20T16:34:35;14.10;;;6.90;;
64487;SDS011;50864;45.050;39.014;2022-11-20T16:37:01;10.93;;;5.70;;
64487;SDS011;50864;45.050;39.014;2022-11-20T16:39:27;15.60;;;5.35;;
64487;SDS011;50864;45.050;39.014;2022-11-20T16:41:53;12.23;;;5.20;;
64487;SDS011;50864;45.050;39.014;2022-11-20T16:44:19;11.85;;;5.22;;
64487;SDS011;50864;45.050;39.014;2022-11-20T16:46:45;10.63;;;6.03;;
64487;SDS011;50864;45.050;39.014;2022-11-20T16:49:12;9.30;;;5.35;;
64487;SDS011;50864;45.050;39.014;2022-11-20T16:51:40;9.88;;;4.62;;
64487;SDS011;50864;45.050;39.014;2022-11-20T16:54:07;9.48;;;5.35;;
64487;SDS011;50864;45.050;39.014;2022-11-20T16:56:34;8.52;;;5.07;;
64487;SDS011;50864;45.050;39.014;2022-11-20T16:59:01;11.68;;;5.45;;
64487;SDS011;50864;45.050;39.014;2022-11-20T17:01:29;13.15;;;6.40;;
64487;SDS011;50864;45.050;39.014;2022-11-20T17:06:24;10.85;;;5.15;;
64487;SDS011;50864;45.050;39.014;2022-11-20T17:08:56;9.18;;;4.97;;
64487;SDS011;50864;45.050;39.014;2022-11-20T17:11:23;10.02;;;5.12;;
64487;SDS011;50864;45.050;39.014;2022-11-20T17:13:50;10.90;;;4.75;;
64487;SDS011;50864;45.050;39.014;2022-11-20T17:16:17;14.30;;;5.62;;
64487;SDS011;50864;45.050;39.014;2022-11-20T17:18:45;11.27;;;5.40;;
64487;SDS011;50864;45.050;39.014;2022-11-20T17:21:12;12.40;;;5.65;;
64487;SDS011;50864;45.050;39.014;2022-11-20T17:23:39;12.73;;;5.50;;
64487;SDS011;50864;45.050;39.014;2022-11-20T17:26:10;11.73;;;5.00;;
64487;SDS011;50864;45.050;39.014;2022-11-20T17:28:39;8.85;;;4.57;;
64487;SDS011;50864;45.050;39.014;2022-11-20T17:31:10;10.68;;;4.82;;
64487;SDS011;50864;45.050;39.014;2022-11-20T17:33:37;7.62;;;4.70;;
64487;SDS011;50864;45.050;39.014;2022-11-20T17:36:06;16.80;;;5.95;;
64487;SDS011;50864;45.050;39.014;2022-11-20T17:38:33;8.25;;;4.78;;
64487;SDS011;50864;45.050;39.014;2022-11-20T17:41:00;12.80;;;5.25;;
64487;SDS011;50864;45.050;39.014;2022-11-20T17:43:57;13.57;;;7.22;;
64487;SDS011;50864;45.050;39.014;2022-11-20T17:46:26;10.43;;;4.60;;
64487;SDS011;50864;45.050;39.014;2022-11-20T17:48:55;12.43;;;5.03;;
64487;SDS011;50864;45.050;39.014;2022-11-20T17:51:21;13.23;;;7.05;;
64487;SDS011;50864;45.050;39.014;2022-11-20T17:53:50;11.70;;;6.62;;
64487;SDS011;50864;45.050;39.014;2022-11-20T17:56:18;12.98;;;5.75;;
64487;SDS011;50864;45.050;39.014;2022-11-20T17:59:07;8.07;;;4.50;;
64487;SDS011;50864;45.050;39.014;2022-11-20T18:01:37;9.50;;;4.20;;
64487;SDS011;50864;45.050;39.014;2022-11-20T18:04:05;11.85;;;5.95;;
64487;SDS011;50864;45.050;39.014;2022-11-20T18:06:35;11.50;;;5.55;;
64487;SDS011;50864;45.050;39.014;2022-11-20T18:09:02;13.05;;;5.20;;
64487;SDS011;50864;45.050;39.014;2022-11-20T18:11:33;11.52;;;4.90;;
64487;SDS011;50864;45.050;39.014;2022-11-20T18:14:01;9.00;;;4.45;;
64487;SDS011;50864;45.050;39.014;2022-11-20T18:16:49;12.60;;;5.18;;
64487;SDS011;50864;45.050;39.014;2022-11-20T18:19:18;8.90;;;5.18;;
64487;SDS011;50864;45.050;39.014;2022-11-20T18:21:46;10.15;;;4.90;;
64487;SDS011;50864;45.050;39.014;2022-11-20T18:24:12;14.05;;;4.80;;
64487;SDS011;50864;45.050;39.014;2022-11-20T18:26:39;8.55;;;5.25;;
64487;SDS011;50864;45.050;39.014;2022-11-20T18:29:05;15.15;;;4.85;;
64487;SDS011;50864;45.050;39.014;2022-11-20T18:31:32;10.38;;;4.78;;
64487;SDS011;50864;45.050;39.014;2022-11-20T18:33:58;8.60;;;5.15;;
64487;SDS011;50864;45.050;39.014;2022-11-20T18:36:25;8.75;;;4.22;;
64487;SDS011;50864;45.050;39.014;2022-11-20T18:38:59;7.80;;;3.85;;
64487;SDS011;50864;45.050;39.014;2022-11-20T18:41:27;8.32;;;4.40;;
64487;SDS011;50864;45.050;39.014;2022-11-20T18:44:15;9.35;;;4.40;;
64487;SDS011;50864;45.050;39.014;2022-11-20T18:47:09;6.35;;;4.00;;
64487;SDS011;50864;45.050;39.014;2022-11-20T18:49:37;8.85;;;4.30;;
64487;SDS011;50864;45.050;39.014;2022-11-20T18:52:03;8.18;;;4.03;;
64487;SDS011;50864;45.050;39.014;2022-11-20T18:54:30;6.25;;;3.70;;
64487;SDS011;50864;45.050;39.014;2022-11-20T18:56:57;9.60;;;4.68;;
64487;SDS011;50864;45.050;39.014;2022-11-20T18:59:22;7.80;;;4.00;;
64487;SDS011;50864;45.050;39.014;2022-11-20T19:01:48;6.35;;;3.90;;
64487;SDS011;50864;45.050;39.014;2022-11-20T19:04:15;7.95;;;4.95;;
64487;SDS011;50864;45.050;39.014;2022-11-20T19:06:43;7.85;;;3.75;;
64487;SDS011;50864;45.050;39.014;2022-11-20T19:09:21;8.00;;;3.97;;
64487;SDS011;50864;45.050;39.014;2022-11-20T19:11:47;6.80;;;3.70;;
64487;SDS011;50864;45.050;39.014;2022-11-20T19:14:13;9.93;;;4.15;;
64487;SDS011;50864;45.050;39.014;2022-11-20T19:16:40;8.63;;;3.50;;
64487;SDS011;50864;45.050;39.014;2022-11-20T19:19:07;6.37;;;3.60;;
64487;SDS011;50864;45.050;39.014;2022-11-20T19:21:34;8.05;;;3.62;;